Terminal Aerodrome Forecast
Issued by NWS

Home | Current Version | Previous Version | Text Only | Print | Product List | Glossary On
Versions: 1 2 3 4 5 6 7 8 9 10 11 12 13 14 15 16
760
FTUS43 KICT 191739
TAFHUT
TAF
KHUT 191739Z 1918/2018 17014G20KT 6SM BR OVC005
      TEMPO 1918/1919 4SM BR
     FM200300 15014G20KT 4SM -SHRA BR VCTS OVC010CB
     FM201300 19013KT P6SM OVC014=

USA.gov is the U.S. government's official web portal to all federal, state and local government web resources and services.